Riberalta, Bolivia
Current Conditions -  °F | °C
As of 10:00 AM on Monday 22 Dec 2014 (Local Time) from SLRI Reporting Station
Broken Clouds Broken Clouds  
Wind Chill: 81°   Ceiling: 8000
Heat Index: 85°   Visibility: 6mi
Dew Point: 73°   Wind: 6mph
Humidity: 79%   Direction: 40°NE
Pressure: 29.91"   Gusts: NA
Location:  11°S, 66.1°W
Report Text: SLRI 221400Z 04005KT 9999 SCT006 SCT017 BKN080 27/23 Q1013
Loading
Personal Weather Stations






























Interactive Weather Map New forecast layout! Learn more

10-Day Weather Forecast

Advertisements
Track Severe Weather on mobile